Kalona, IA (52247)

10:12 AM CDT on October 24, 2014 (GMT -0500)
Iowa City Municipal | Change Station
CLOSE
Current Station
Airport
Location: Iowa City,
Elevation: 666 ft
Nearby Weather Stations
Active Advisory: Dense Fog Advisory

Elev 666 ft 41.63 °N, 91.54 °W | Updated 20 minutes ago

Fog
Fog
50 °F
Feels Like 50 °F
N
6
Wind Variable Wind from SSE

Today
High -- | Low -- °F
--% Chance of Precip.
Yesterday
High -- | Low -- °F
Precip. -- in
7:29 AM 6:12 PM
New Moon, 1% visible
Pressure 30.07 in
Visibility 0.2 miles
Clouds
Dew Point 50 °F
Humidity 100%
Rainfall 0.00 in
Snow Depth Not available.
UV Not available.
Pollen 1.10 out of 12
Air Quality Not available.
Flu Activity Sporadic
METAR KIOW 241452Z AUTO 16005KT 1/4SM FG VV002 10/10 A3006 RMK AO2 SLP181 T01000100 50004

More Conditions Fewer Conditions

Pressure 30.07 in
Visibility 0.2 miles
Clouds
Dew Point 50 °F
Humidity 100%
Rainfall 0.00 in
Snow Depth Not available.
UV Not available.
Pollen 1.10 out of 12
Air Quality Not available.
Flu Activity Sporadic
METAR KIOW 241452Z AUTO 16005KT 1/4SM FG VV002 10/10 A3006 RMK AO2 SLP181 T01000100 50004

More Conditions Fewer Conditions

10-Day Weather Forecast

Almanac

Astronomy

Oct. 24, 2014 Rise Set
Actual Time 7:29 AM CDT 6:12 PM CDT
Civil Twilight 7:00 AM CDT 6:40 PM CDT
Nautical Twilight 6:28 AM CDT 7:12 PM CDT
Astronomical Twilight 5:56 AM CDT 7:44 PM CDT
Moon 8:08 AM CDT 6:52 PM CDT
Length of Visible Light 11h 39m
Length of Day
10h 43m
Tomorrow will be 2m 34s shorter.
New Moon, 1% of the Moon is Illuminated
Today
New Moon
Oct 30
First Quarter
Nov 6
Full
Nov 14
Last Quarter
Nov 22
New

Today's Extremes

State Highs State Lows

Community

WunderPhotos

Upload Photos

1,764,587 photos uploaded!

WunderBlogs® & News

Nearby

Snow Depth

Station Depth Elevation
No new snow has been reported.

Earthquake Activity

City Distance Mag. Time & Date
No recent earthquake activity has been reported nearby.
Minimum magnitude displayed is 2.5.

Coastal Water Temperatures

Place Temperature
No Stations Reporting

Nearby Weather Stations